Ana Sayfa
METAR-TAF:

METAR-TAF

Havaalanları :

Yakutsk Havalimanı

Yakutsk, Rusya

Enlem: 62-01N, Boylam: 129-43E, yükseklik: 103 m

Güncel hava durumu gözlemi

Rapor saat 22:30 UTC de 31 dakika önce yapıldı.
Rüzgar güneydoğudan 2 kt
Sıcaklık 17°C
Nem 59%
Basınç 1014 hPa
Görüş mesafesi 10 km veya daha fazla
1500 m altında bulut yok ve kümülonimbus yok

METAR: UEEE 202230Z 13001MPS CAVOK 17/09 Q1014 R23/09//62 NOSIG RMK QFE752

Saat: 08:01 (23:01 UTC)

Tahmin

Rapor saat 20:00 UTC de 3 saat ve 1 dakika önce yapıldı.
Ayın 20'si saat 21 UTC'den ayın 22'si saat 03 UTC'ye kadar geçerli Tahmin
Rüzgar güneydoğudan 6 kt ve 17 kt'a kadar ani rüzgarlar
Görüş mesafesi 10 km veya daha fazla
3300 ft yükseklikte parçalı bulutlu, Kümülonimbus.
Geçici
ayın 21'si saat 00 UTC'den ayın 21'si saat 09 UTC'ye kadar
Rüzgar değişken yönden 16 kt

TAF: UEEE 202000Z 2021/2203 14003G09MPS 9999 SCT033CB TX26/2106Z TN13/2021Z TEMPO 2100/2109 VRB08MPS

4.000'den fazla havaalanı için hava durumu gözlemleri ve tahminleri (METAR ve TAF raporları).

Kullanılabilir istasyonlar harita üzerinde sarı ve kırmızı noktalarla gösterilir.

İstasyonun adını görmek için fareyi noktanın üzerinde gezdirin.

Sonrasında hava gözlem ve tahminlerini görmek için tıklayın.

Haritayı değiştirmek için: yaklaştırmak için siyah artı işaretli yeşil düğmeye ve uzaklaştırmak için de eksi işaretli düğmeye hızla tıklayın; bitişik haritalar için yeşil okları kullanın.


METAR-TAF: